Time;durP1;ratioP1;P1;durP2;ratioP2;P2;SDS_P1;SDS_P2;PMS_P1;PMS_P2;Temp;Humidity;BMP_temperature;BMP_pressure;BME280_temperature;BME280_humidity;BME280_pressure;Samples;Min_cycle;Max_cycle;Signal;HPM_P1;HPM_P2
2024/01/30 00:00:37;;;;;;;0.00;0.00;;;;;;;;;;5033912;28;20076;-61
2024/01/30 00:03:05;;;;;;;1.30;1.27;;;;;;;;;;5032432;28;20049;-61
2024/01/30 00:05:32;;;;;;;1.02;1.02;;;;;;;;;;5033679;28;20033;-61
2024/01/30 00:08:00;;;;;;;0.22;0.22;;;;;;;;;;5033708;28;20121;-61
2024/01/30 00:10:28;;;;;;;3.25;1.27;;;;;;;;;;5033927;28;20062;-61
2024/01/30 00:12:55;;;;;;;1.42;1.15;;;;;;;;;;5033350;28;20049;-61
2024/01/30 00:15:23;;;;;;;0.75;0.75;;;;;;;;;;5033634;28;20037;-61
2024/01/30 00:17:52;;;;;;;1.52;1.42;;;;;;;;;;5033187;28;20083;-61
2024/01/30 00:20:21;;;;;;;1.17;0.10;;;;;;;;;;5033494;28;20043;-61
2024/01/30 00:22:49;;;;;;;1.27;1.17;;;;;;;;;;5033200;28;20083;-61
2024/01/30 00:25:16;;;;;;;2.85;2.65;;;;;;;;;;5033150;28;20045;-61
2024/01/30 00:27:44;;;;;;;1.27;1.27;;;;;;;;;;5033113;28;20075;-61
2024/01/30 00:30:12;;;;;;;0.47;0.47;;;;;;;;;;5033595;28;20037;-61
2024/01/30 00:32:40;;;;;;;0.30;0.30;;;;;;;;;;5033299;28;20068;-61
2024/01/30 00:35:09;;;;;;;1.95;0.90;;;;;;;;;;5033170;28;20113;-61
2024/01/30 00:37:37;;;;;;;1.10;1.10;;;;;;;;;;5032038;28;20076;-61
2024/01/30 00:40:05;;;;;;;0.15;0.15;;;;;;;;;;5033137;28;20052;-61
2024/01/30 00:42:34;;;;;;;0.65;0.45;;;;;;;;;;5031705;28;20049;-61
2024/01/30 00:45:01;;;;;;;0.90;0.75;;;;;;;;;;5033096;28;20495;-62
2024/01/30 00:47:29;;;;;;;0.75;0.70;;;;;;;;;;5033010;28;20108;-61
2024/01/30 00:49:56;;;;;;;0.00;0.00;;;;;;;;;;5033032;28;20053;-61
2024/01/30 00:52:24;;;;;;;1.70;1.60;;;;;;;;;;5032981;28;20476;-61
2024/01/30 00:54:52;;;;;;;4.40;1.27;;;;;;;;;;5032788;28;20045;-61
2024/01/30 00:57:19;;;;;;;5.15;3.20;;;;;;;;;;5033023;28;20120;-61
2024/01/30 00:59:47;;;;;;;5.20;2.42;;;;;;;;;;5032782;28;20037;-62
2024/01/30 01:02:17;;;;;;;0.95;0.85;;;;;;;;;;5032934;28;20037;-61
2024/01/30 01:04:44;;;;;;;0.90;0.90;;;;;;;;;;5032766;28;20041;-61
2024/01/30 01:07:12;;;;;;;0.10;0.10;;;;;;;;;;5032677;28;20037;-61
2024/01/30 01:09:40;;;;;;;2.58;1.67;;;;;;;;;;5032766;28;20099;-61
2024/01/30 01:12:07;;;;;;;2.85;2.63;;;;;;;;;;5032499;28;20038;-61
2024/01/30 01:14:36;;;;;;;2.28;1.75;;;;;;;;;;5032714;28;20838;-61
2024/01/30 01:17:03;;;;;;;0.17;0.17;;;;;;;;;;5032680;28;20037;-61
2024/01/30 01:19:31;;;;;;;2.08;1.27;;;;;;;;;;5031288;28;20049;-61
2024/01/30 01:21:59;;;;;;;0.98;0.80;;;;;;;;;;5032358;28;20049;-61
2024/01/30 01:24:27;;;;;;;0.57;0.57;;;;;;;;;;5032730;28;20041;-61
2024/01/30 01:26:55;;;;;;;0.50;0.50;;;;;;;;;;5032545;28;20049;-61
2024/01/30 01:29:28;;;;;;;0.13;0.13;;;;;;;;;;5033993;28;20128;-61
2024/01/30 01:31:56;;;;;;;0.77;0.73;;;;;;;;;;5039124;28;20042;-61
2024/01/30 01:34:24;;;;;;;0.10;0.10;;;;;;;;;;5039082;28;20046;-61
2024/01/30 01:36:56;;;;;;;1.02;0.55;;;;;;;;;;5039007;28;20044;-61
2024/01/30 01:39:24;;;;;;;1.33;0.75;;;;;;;;;;5037990;28;20067;-61
2024/01/30 01:41:52;;;;;;;2.78;1.52;;;;;;;;;;5038926;28;20039;-62
2024/01/30 01:44:19;;;;;;;0.70;0.30;;;;;;;;;;5038988;28;20048;-62
2024/01/30 01:46:48;;;;;;;0.70;0.70;;;;;;;;;;5039100;28;20133;-62
2024/01/30 01:49:15;;;;;;;0.30;0.30;;;;;;;;;;5039144;28;20034;-62
2024/01/30 01:51:44;;;;;;;0.63;0.43;;;;;;;;;;5039143;28;20054;-62
2024/01/30 01:54:12;;;;;;;6.38;3.97;;;;;;;;;;5039040;28;20120;-62
2024/01/30 01:56:40;;;;;;;1.10;0.20;;;;;;;;;;5038868;28;20037;-62
2024/01/30 01:59:08;;;;;;;1.08;0.98;;;;;;;;;;5038881;28;20490;-62
2024/01/30 02:01:43;;;;;;;0.00;0.00;;;;;;;;;;5038947;28;20048;-62
2024/01/30 02:04:10;;;;;;;0.80;0.55;;;;;;;;;;5038758;28;20048;-62
2024/01/30 02:06:39;;;;;;;0.17;0.17;;;;;;;;;;5038794;28;20037;-62
2024/01/30 02:09:06;;;;;;;2.67;1.52;;;;;;;;;;5038707;28;20084;-62
2024/01/30 02:11:34;;;;;;;0.47;0.47;;;;;;;;;;5038778;28;20037;-61
2024/01/30 02:14:04;;;;;;;1.75;0.80;;;;;;;;;;5037251;28;20445;-62
2024/01/30 02:16:32;;;;;;;0.20;0.20;;;;;;;;;;5038688;28;20120;-62
2024/01/30 02:18:59;;;;;;;1.98;1.65;;;;;;;;;;5037620;28;20069;-62
2024/01/30 02:21:27;;;;;;;1.55;1.33;;;;;;;;;;5038645;28;20041;-62
2024/01/30 02:23:56;;;;;;;3.65;1.08;;;;;;;;;;5037363;28;20725;-62
2024/01/30 02:26:23;;;;;;;2.45;1.55;;;;;;;;;;5038590;28;20048;-62
2024/01/30 02:28:51;;;;;;;1.42;1.33;;;;;;;;;;5038681;28;20069;-62
2024/01/30 02:31:18;;;;;;;0.90;0.90;;;;;;;;;;5038818;28;20483;-62
2024/01/30 02:33:46;;;;;;;1.77;1.67;;;;;;;;;;5038399;28;20046;-62
2024/01/30 02:36:15;;;;;;;2.42;0.55;;;;;;;;;;5038586;28;20503;-61
2024/01/30 02:38:43;;;;;;;6.70;2.17;;;;;;;;;;5038449;28;20042;-62
2024/01/30 02:41:10;;;;;;;4.65;1.50;;;;;;;;;;5036806;28;20044;-62
2024/01/30 02:43:38;;;;;;;4.07;1.85;;;;;;;;;;5035875;28;20045;-62
2024/01/30 02:46:05;;;;;;;2.20;2.00;;;;;;;;;;5035451;28;20483;-62
2024/01/30 02:48:33;;;;;;;0.47;0.25;;;;;;;;;;5035309;28;20132;-61
2024/01/30 02:51:00;;;;;;;4.05;2.72;;;;;;;;;;5035171;28;20427;-62
2024/01/30 02:53:28;;;;;;;0.50;0.50;;;;;;;;;;5033886;28;20042;-61
2024/01/30 02:55:56;;;;;;;1.25;1.20;;;;;;;;;;5035179;28;20048;-60
2024/01/30 02:58:23;;;;;;;0.80;0.77;;;;;;;;;;5035069;28;20053;-60
2024/01/30 03:00:51;;;;;;;3.60;1.58;;;;;;;;;;5035380;28;20068;-60
2024/01/30 03:03:18;;;;;;;2.83;0.68;;;;;;;;;;5035174;28;20435;-61
2024/01/30 03:05:46;;;;;;;4.07;2.60;;;;;;;;;;5035185;28;20037;-61
2024/01/30 03:08:14;;;;;;;4.28;2.97;;;;;;;;;;5033779;28;20095;-60
2024/01/30 03:10:41;;;;;;;5.13;3.47;;;;;;;;;;5033804;28;20087;-60
2024/01/30 03:13:09;;;;;;;0.20;0.20;;;;;;;;;;5034598;28;20110;-60
2024/01/30 03:15:36;;;;;;;0.80;0.68;;;;;;;;;;5034696;28;20060;-60
2024/01/30 03:18:04;;;;;;;1.77;1.38;;;;;;;;;;5033299;28;20096;-60
2024/01/30 03:20:32;;;;;;;1.73;1.35;;;;;;;;;;5034720;28;20080;-60
2024/01/30 03:23:00;;;;;;;2.63;2.40;;;;;;;;;;5034411;28;20054;-60
2024/01/30 03:25:28;;;;;;;3.42;1.27;;;;;;;;;;5033464;28;20033;-60
2024/01/30 03:27:56;;;;;;;4.57;2.55;;;;;;;;;;5034478;28;20457;-60
2024/01/30 03:30:23;;;;;;;2.75;1.48;;;;;;;;;;5034549;28;20120;-60
2024/01/30 03:32:51;;;;;;;0.43;0.40;;;;;;;;;;5034264;28;20060;-61
2024/01/30 03:35:19;;;;;;;2.25;1.35;;;;;;;;;;5033477;28;20443;-60
2024/01/30 03:37:47;;;;;;;1.65;1.55;;;;;;;;;;5034589;28;20053;-61
2024/01/30 03:40:15;;;;;;;0.25;0.25;;;;;;;;;;5034230;28;20133;-60
2024/01/30 03:42:42;;;;;;;1.23;1.08;;;;;;;;;;5034129;28;20515;-60
2024/01/30 03:45:10;;;;;;;1.70;0.88;;;;;;;;;;5032926;28;20046;-60
2024/01/30 03:47:38;;;;;;;3.65;1.63;;;;;;;;;;5032875;28;20042;-61
2024/01/30 03:50:05;;;;;;;1.27;1.17;;;;;;;;;;5033692;28;20124;-60
2024/01/30 03:52:33;;;;;;;3.50;1.67;;;;;;;;;;5033448;28;20543;-60
2024/01/30 03:55:01;;;;;;;8.60;6.22;;;;;;;;;;5033461;28;20076;-60
2024/01/30 03:57:28;;;;;;;0.93;0.93;;;;;;;;;;5016953;28;20045;-60
2024/01/30 03:59:56;;;;;;;0.10;0.10;;;;;;;;;;5032590;28;20427;-60
2024/01/30 04:02:30;;;;;;;0.82;0.77;;;;;;;;;;5033960;28;20037;-61
2024/01/30 04:04:58;;;;;;;4.57;3.63;;;;;;;;;;5032613;28;20052;-60
2024/01/30 04:07:26;;;;;;;0.30;0.30;;;;;;;;;;5032736;28;20748;-61
2024/01/30 04:09:54;;;;;;;2.85;1.00;;;;;;;;;;5033710;28;20038;-60
2024/01/30 04:12:21;;;;;;;0.60;0.60;;;;;;;;;;5034024;28;20029;-60
2024/01/30 04:14:49;;;;;;;8.07;0.93;;;;;;;;;;5033431;28;20041;-62
2024/01/30 04:17:16;;;;;;;2.72;1.08;;;;;;;;;;5033641;28;20515;-61
2024/01/30 04:19:44;;;;;;;4.55;2.00;;;;;;;;;;5033575;28;20096;-61
2024/01/30 04:22:11;;;;;;;2.88;1.85;;;;;;;;;;5033434;28;20092;-61
2024/01/30 04:24:39;;;;;;;0.82;0.82;;;;;;;;;;5033368;28;20045;-60
2024/01/30 04:27:07;;;;;;;1.20;1.20;;;;;;;;;;5033402;28;20446;-60
2024/01/30 04:29:34;;;;;;;4.13;3.72;;;;;;;;;;5032097;28;20402;-60
2024/01/30 04:32:02;;;;;;;0.45;0.45;;;;;;;;;;5033383;28;20046;-61
2024/01/30 04:34:29;;;;;;;1.75;1.65;;;;;;;;;;5032029;28;20108;-61
2024/01/30 04:36:57;;;;;;;0.10;0.10;;;;;;;;;;5033218;28;20053;-60
2024/01/30 04:39:25;;;;;;;0.77;0.77;;;;;;;;;;5031168;28;20049;-60
2024/01/30 04:41:52;;;;;;;1.33;1.30;;;;;;;;;;5033139;28;20068;-61
2024/01/30 04:44:20;;;;;;;0.10;0.10;;;;;;;;;;5032690;28;20060;-61
2024/01/30 04:46:47;;;;;;;1.00;0.98;;;;;;;;;;5033059;28;20053;-60
2024/01/30 04:49:15;;;;;;;2.33;2.20;;;;;;;;;;5032895;28;20052;-60
2024/01/30 04:51:42;;;;;;;5.18;1.77;;;;;;;;;;5032696;28;20034;-60
2024/01/30 04:54:10;;;;;;;1.63;0.93;;;;;;;;;;5033084;28;20115;-60
2024/01/30 04:56:39;;;;;;;1.23;1.15;;;;;;;;;;5033057;28;20084;-60
2024/01/30 04:59:08;;;;;;;2.15;2.05;;;;;;;;;;5032703;28;20093;-61
2024/01/30 05:01:36;;;;;;;0.68;0.68;;;;;;;;;;5032795;28;20067;-60
2024/01/30 05:04:03;;;;;;;0.90;0.90;;;;;;;;;;5032248;28;20511;-60
2024/01/30 05:06:31;;;;;;;0.15;0.15;;;;;;;;;;5031493;28;20045;-60
2024/01/30 05:08:59;;;;;;;6.88;3.50;;;;;;;;;;5032665;28;20068;-60
2024/01/30 05:11:26;;;;;;;1.35;1.20;;;;;;;;;;5032796;28;20049;-60
2024/01/30 05:13:54;;;;;;;5.95;3.70;;;;;;;;;;5032594;28;20041;-60
2024/01/30 05:16:21;;;;;;;0.38;0.38;;;;;;;;;;5030856;28;20038;-60
2024/01/30 05:18:49;;;;;;;1.98;1.85;;;;;;;;;;5031114;28;20045;-60
2024/01/30 05:21:17;;;;;;;7.18;3.08;;;;;;;;;;5030859;28;20046;-61
2024/01/30 05:23:44;;;;;;;2.35;2.10;;;;;;;;;;5031108;28;20045;-61
2024/01/30 05:26:12;;;;;;;4.57;2.42;;;;;;;;;;5030146;28;20049;-60
2024/01/30 05:28:40;;;;;;;4.65;3.35;;;;;;;;;;5032036;28;20049;-61
2024/01/30 05:31:07;;;;;;;1.10;1.05;;;;;;;;;;5031003;28;20414;-61
2024/01/30 05:33:35;;;;;;;0.32;0.32;;;;;;;;;;5032326;28;20043;-61
2024/01/30 05:36:03;;;;;;;2.22;2.13;;;;;;;;;;5032664;28;20050;-61
2024/01/30 05:38:31;;;;;;;1.75;1.65;;;;;;;;;;5032432;28;20038;-60
2024/01/30 05:40:59;;;;;;;2.08;1.88;;;;;;;;;;5031125;28;20037;-60
2024/01/30 05:43:27;;;;;;;4.40;4.10;;;;;;;;;;5032227;28;20053;-60
2024/01/30 05:45:54;;;;;;;0.17;0.17;;;;;;;;;;5032325;28;20049;-60
2024/01/30 05:48:22;;;;;;;7.93;4.15;;;;;;;;;;5032271;28;20419;-60
2024/01/30 05:50:49;;;;;;;1.13;1.13;;;;;;;;;;5032257;28;20033;-61
2024/01/30 05:53:17;;;;;;;9.98;5.30;;;;;;;;;;5032096;28;20128;-60
2024/01/30 05:55:45;;;;;;;4.05;2.58;;;;;;;;;;5032093;28;20044;-60
2024/01/30 05:58:13;;;;;;;0.35;0.35;;;;;;;;;;5030771;28;20041;-61
2024/01/30 06:00:41;;;;;;;3.40;2.88;;;;;;;;;;5032142;28;20117;-61
2024/01/30 06:03:08;;;;;;;4.85;2.35;;;;;;;;;;5031994;28;20057;-61
2024/01/30 06:05:36;;;;;;;11.30;5.43;;;;;;;;;;5032086;28;20044;-60
2024/01/30 06:08:04;;;;;;;3.75;2.83;;;;;;;;;;5031943;28;20038;-60
2024/01/30 06:10:31;;;;;;;2.08;1.85;;;;;;;;;;5031912;28;20068;-60
2024/01/30 06:12:59;;;;;;;8.25;4.90;;;;;;;;;;5030947;28;20052;-62
2024/01/30 06:15:27;;;;;;;0.45;0.45;;;;;;;;;;5031890;28;20037;-59
2024/01/30 06:17:54;;;;;;;0.10;0.10;;;;;;;;;;5035144;28;20392;-59
2024/01/30 06:20:22;;;;;;;0.82;0.82;;;;;;;;;;5035670;28;20064;-59
2024/01/30 06:22:50;;;;;;;4.85;2.88;;;;;;;;;;5034522;28;20510;-60
2024/01/30 06:25:17;;;;;;;12.93;5.35;;;;;;;;;;5035496;28;20037;-60
2024/01/30 06:27:45;;;;;;;9.45;4.93;;;;;;;;;;5035601;28;20088;-60
2024/01/30 06:30:13;;;;;;;3.30;1.98;;;;;;;;;;5035555;28;20045;-60
2024/01/30 06:32:40;;;;;;;3.85;3.42;;;;;;;;;;5035407;28;20045;-60
2024/01/30 06:35:10;;;;;;;16.58;4.53;;;;;;;;;;5035540;28;20057;-60
2024/01/30 06:37:37;;;;;;;4.38;2.03;;;;;;;;;;5035206;28;20045;-60
2024/01/30 06:40:05;;;;;;;0.98;0.63;;;;;;;;;;5034914;28;20069;-60
2024/01/30 06:42:33;;;;;;;1.48;1.38;;;;;;;;;;5034005;28;20450;-61
2024/01/30 06:45:00;;;;;;;8.45;4.93;;;;;;;;;;5035409;28;20064;-60
2024/01/30 06:47:29;;;;;;;1.98;0.85;;;;;;;;;;5035266;28;20045;-60
2024/01/30 06:49:56;;;;;;;10.55;5.00;;;;;;;;;;5035235;28;20049;-61
2024/01/30 06:52:24;;;;;;;8.43;2.78;;;;;;;;;;5035230;28;20041;-60
2024/01/30 06:54:52;;;;;;;6.18;5.55;;;;;;;;;;5035115;28;20049;-60
2024/01/30 06:57:20;;;;;;;3.40;2.60;;;;;;;;;;5035017;28;20042;-61
2024/01/30 06:59:47;;;;;;;9.93;4.85;;;;;;;;;;5034697;28;20041;-61
2024/01/30 07:02:15;;;;;;;1.45;1.35;;;;;;;;;;5034985;28;20041;-61
2024/01/30 07:04:43;;;;;;;3.10;2.90;;;;;;;;;;5034911;28;20048;-61
2024/01/30 07:07:14;;;;;;;1.67;1.58;;;;;;;;;;5034951;28;20087;-60
2024/01/30 07:09:43;;;;;;;2.20;1.55;;;;;;;;;;5034824;28;20048;-61
2024/01/30 07:12:10;;;;;;;1.42;1.35;;;;;;;;;;5034999;28;20077;-61
2024/01/30 07:14:38;;;;;;;3.67;3.38;;;;;;;;;;5034632;28;20121;-61
2024/01/30 07:17:06;;;;;;;0.25;0.25;;;;;;;;;;5034795;28;20064;-61
2024/01/30 07:19:34;;;;;;;3.50;1.33;;;;;;;;;;5034832;28;20037;-61
2024/01/30 07:22:02;;;;;;;1.85;1.48;;;;;;;;;;5034698;28;20053;-61
2024/01/30 07:24:29;;;;;;;0.65;0.65;;;;;;;;;;5034923;28;20048;-61
2024/01/30 07:26:57;;;;;;;1.75;1.55;;;;;;;;;;5034390;28;20037;-61
2024/01/30 07:29:25;;;;;;;2.13;1.48;;;;;;;;;;5034671;28;20038;-61
2024/01/30 07:31:53;;;;;;;1.48;1.38;;;;;;;;;;5034471;28;20034;-61
2024/01/30 07:34:20;;;;;;;3.22;2.92;;;;;;;;;;5034255;28;20041;-61
2024/01/30 07:36:48;;;;;;;4.05;2.78;;;;;;;;;;5034293;28;20053;-60
2024/01/30 07:39:16;;;;;;;2.78;1.45;;;;;;;;;;5034657;28;20414;-61
2024/01/30 07:41:44;;;;;;;2.75;2.25;;;;;;;;;;5034282;28;20033;-61
2024/01/30 07:44:11;;;;;;;0.77;0.77;;;;;;;;;;5034213;28;20044;-61
2024/01/30 07:46:39;;;;;;;9.60;2.63;;;;;;;;;;5034139;28;20521;-60
2024/01/30 07:49:06;;;;;;;2.05;1.50;;;;;;;;;;5033863;28;20487;-61
2024/01/30 07:51:34;;;;;;;9.20;3.45;;;;;;;;;;5032975;28;20075;-61
2024/01/30 07:54:02;;;;;;;0.57;0.57;;;;;;;;;;5033566;28;20041;-61
2024/01/30 07:56:29;;;;;;;1.75;1.65;;;;;;;;;;5033456;28;20047;-61
2024/01/30 07:58:57;;;;;;;2.55;1.95;;;;;;;;;;5033704;28;20049;-61
2024/01/30 08:01:24;;;;;;;1.80;1.67;;;;;;;;;;5033754;28;20045;-61
2024/01/30 08:03:52;;;;;;;4.07;3.25;;;;;;;;;;5033962;28;20380;-61
2024/01/30 08:06:20;;;;;;;0.47;0.47;;;;;;;;;;5032586;28;20499;-60
2024/01/30 08:08:47;;;;;;;1.35;0.77;;;;;;;;;;5033705;28;20049;-60
2024/01/30 08:11:15;;;;;;;3.30;2.50;;;;;;;;;;5033835;28;20493;-60
2024/01/30 08:13:42;;;;;;;0.80;0.63;;;;;;;;;;5033539;28;20125;-60
2024/01/30 08:16:10;;;;;;;0.65;0.65;;;;;;;;;;5033624;28;20103;-60
2024/01/30 08:18:41;;;;;;;0.65;0.57;;;;;;;;;;5033375;28;20088;-60
2024/01/30 08:21:09;;;;;;;1.23;1.17;;;;;;;;;;5033499;28;20041;-60
2024/01/30 08:23:38;;;;;;;1.65;1.55;;;;;;;;;;5033244;28;20116;-60
2024/01/30 08:26:06;;;;;;;3.10;1.20;;;;;;;;;;5033385;28;20495;-60
2024/01/30 08:28:34;;;;;;;4.10;1.17;;;;;;;;;;5033317;28;20042;-60
2024/01/30 08:31:02;;;;;;;5.78;1.83;;;;;;;;;;5032611;28;20391;-61
2024/01/30 08:33:29;;;;;;;0.63;0.63;;;;;;;;;;5031572;28;20045;-61
2024/01/30 08:35:57;;;;;;;1.67;0.75;;;;;;;;;;5033252;28;20060;-61
2024/01/30 08:38:25;;;;;;;7.65;3.92;;;;;;;;;;5033500;28;20052;-61
2024/01/30 08:40:52;;;;;;;0.28;0.28;;;;;;;;;;5032636;28;20128;-61
2024/01/30 08:43:20;;;;;;;3.00;2.05;;;;;;;;;;5033277;28;20545;-61
2024/01/30 08:45:47;;;;;;;3.25;2.00;;;;;;;;;;5032172;28;20041;-61
2024/01/30 08:48:15;;;;;;;4.75;2.60;;;;;;;;;;5033113;28;20037;-61
2024/01/30 08:50:44;;;;;;;0.98;0.98;;;;;;;;;;5033070;28;20041;-61
2024/01/30 08:53:11;;;;;;;5.60;4.28;;;;;;;;;;5032930;28;20057;-61
2024/01/30 08:55:39;;;;;;;4.22;2.17;;;;;;;;;;5032710;28;20091;-61
2024/01/30 08:58:07;;;;;;;4.10;3.25;;;;;;;;;;5032924;28;20033;-61
2024/01/30 09:00:35;;;;;;;0.65;0.65;;;;;;;;;;5032733;28;20049;-61
2024/01/30 09:03:03;;;;;;;4.68;1.40;;;;;;;;;;5032810;28;20052;-61
2024/01/30 09:05:31;;;;;;;6.15;2.42;;;;;;;;;;5032971;28;20046;-61
2024/01/30 09:07:58;;;;;;;3.67;3.40;;;;;;;;;;5031466;28;20466;-61
2024/01/30 09:10:26;;;;;;;2.00;1.48;;;;;;;;;;5032774;28;20052;-61
2024/01/30 09:12:54;;;;;;;6.32;1.92;;;;;;;;;;5031399;28;20439;-61
2024/01/30 09:15:22;;;;;;;4.88;2.22;;;;;;;;;;5032529;28;20049;-61
2024/01/30 09:17:53;;;;;;;12.45;3.55;;;;;;;;;;5032803;28;20041;-61
2024/01/30 09:20:22;;;;;;;1.90;1.80;;;;;;;;;;5032602;28;20046;-61
2024/01/30 09:22:50;;;;;;;1.65;1.45;;;;;;;;;;5032345;28;20056;-61
2024/01/30 09:25:19;;;;;;;5.13;3.22;;;;;;;;;;5032472;28;20069;-61
2024/01/30 09:27:47;;;;;;;3.03;1.90;;;;;;;;;;5032674;28;20048;-61
2024/01/30 09:30:14;;;;;;;0.80;0.52;;;;;;;;;;5032458;28;20042;-61
2024/01/30 09:32:43;;;;;;;0.22;0.22;;;;;;;;;;5032754;28;20091;-61
2024/01/30 09:35:10;;;;;;;0.75;0.75;;;;;;;;;;5032393;28;20061;-61
2024/01/30 09:37:38;;;;;;;0.43;0.43;;;;;;;;;;5032346;28;20064;-61
2024/01/30 09:40:07;;;;;;;0.82;0.60;;;;;;;;;;5032469;28;20491;-62
2024/01/30 09:42:36;;;;;;;5.05;2.00;;;;;;;;;;5032769;28;20045;-61
2024/01/30 09:45:04;;;;;;;2.72;1.42;;;;;;;;;;5031047;28;20052;-61
2024/01/30 09:47:41;;;;;;;0.90;0.90;;;;;;;;;;5031108;28;20061;-61
2024/01/30 09:50:10;;;;;;;1.20;1.05;;;;;;;;;;5032501;28;20502;-61
2024/01/30 09:52:38;;;;;;;0.00;0.00;;;;;;;;;;5036405;28;20034;-61
2024/01/30 09:55:06;;;;;;;3.22;2.28;;;;;;;;;;5036192;28;20116;-61
2024/01/30 09:57:35;;;;;;;1.90;0.40;;;;;;;;;;5036138;28;20089;-61
2024/01/30 10:00:08;;;;;;;2.90;1.65;;;;;;;;;;5036262;28;20041;-61
2024/01/30 10:02:40;;;;;;;0.00;0.00;;;;;;;;;;5036322;28;20113;-61
2024/01/30 10:05:08;;;;;;;0.38;0.38;;;;;;;;;;5036258;28;20084;-61
2024/01/30 10:07:36;;;;;;;3.95;2.80;;;;;;;;;;5036073;28;20095;-61
2024/01/30 10:10:06;;;;;;;0.95;0.95;;;;;;;;;;5035946;28;20091;-61
2024/01/30 10:12:34;;;;;;;0.05;0.05;;;;;;;;;;5036008;28;20042;-61
2024/01/30 10:15:02;;;;;;;0.75;0.65;;;;;;;;;;5034983;28;20034;-61
2024/01/30 10:17:30;;;;;;;1.30;0.70;;;;;;;;;;5036288;28;20045;-61
2024/01/30 10:20:00;;;;;;;1.95;1.75;;;;;;;;;;5035905;28;20136;-61
2024/01/30 10:22:29;;;;;;;2.03;1.92;;;;;;;;;;5035760;28;20129;-62
2024/01/30 10:24:57;;;;;;;0.20;0.20;;;;;;;;;;5035829;28;20042;-61
2024/01/30 10:27:29;;;;;;;0.35;0.35;;;;;;;;;;5035739;28;20041;-61
2024/01/30 10:29:57;;;;;;;4.85;1.00;;;;;;;;;;5035647;28;20113;-61
2024/01/30 10:32:26;;;;;;;6.70;0.80;;;;;;;;;;5035725;28;20038;-62
2024/01/30 10:34:54;;;;;;;0.68;0.68;;;;;;;;;;5035425;28;20493;-62
2024/01/30 10:37:25;;;;;;;1.10;0.98;;;;;;;;;;5035407;28;20049;-61
2024/01/30 10:39:57;;;;;;;2.72;1.58;;;;;;;;;;5035685;28;20057;-61
2024/01/30 10:42:28;;;;;;;2.22;1.63;;;;;;;;;;5035345;28;20446;-62
2024/01/30 10:45:08;;;;;;;1.90;1.80;;;;;;;;;;5035220;28;20388;-61
2024/01/30 10:47:37;;;;;;;5.30;2.40;;;;;;;;;;5035311;28;20499;-61
2024/01/30 10:50:06;;;;;;;2.38;1.45;;;;;;;;;;5034044;28;20098;-61
2024/01/30 10:52:33;;;;;;;0.00;0.00;;;;;;;;;;5035176;28;20483;-61
2024/01/30 10:55:02;;;;;;;4.65;1.33;;;;;;;;;;5034175;28;20053;-61
2024/01/30 10:57:29;;;;;;;0.40;0.40;;;;;;;;;;5035466;28;20037;-61
2024/01/30 10:59:58;;;;;;;3.40;1.10;;;;;;;;;;5035122;28;20056;-60
2024/01/30 11:02:26;;;;;;;0.35;0.35;;;;;;;;;;5034449;28;20084;-60
2024/01/30 11:04:58;;;;;;;0.10;0.10;;;;;;;;;;5034947;28;20037;-60
2024/01/30 11:07:27;;;;;;;0.68;0.68;;;;;;;;;;5035033;28;20494;-60
2024/01/30 11:10:00;;;;;;;0.70;0.70;;;;;;;;;;5034028;28;20065;-60
2024/01/30 11:12:29;;;;;;;0.63;0.57;;;;;;;;;;5034752;28;20069;-61
2024/01/30 11:15:05;;;;;;;0.73;0.73;;;;;;;;;;5034814;28;20038;-61
2024/01/30 11:17:48;;;;;;;0.47;0.28;;;;;;;;;;5034959;28;20402;-61
2024/01/30 11:20:19;;;;;;;1.77;1.20;;;;;;;;;;5034665;28;20494;-61
2024/01/30 11:22:48;;;;;;;1.00;0.55;;;;;;;;;;5034560;28;20140;-61
2024/01/30 11:25:16;;;;;;;0.40;0.40;;;;;;;;;;5033412;28;20128;-61
2024/01/30 11:27:45;;;;;;;0.68;0.68;;;;;;;;;;5034520;28;20041;-61
2024/01/30 11:30:31;;;;;;;0.47;0.43;;;;;;;;;;5034418;28;20037;-61
2024/01/30 11:32:59;;;;;;;0.32;0.10;;;;;;;;;;5034655;28;20041;-61
2024/01/30 11:35:30;;;;;;;2.08;0.30;;;;;;;;;;5034374;28;20033;-61
2024/01/30 11:37:58;;;;;;;0.57;0.57;;;;;;;;;;5034384;28;20041;-62
2024/01/30 11:40:27;;;;;;;3.45;1.05;;;;;;;;;;5034364;28;20506;-61
2024/01/30 11:42:56;;;;;;;0.40;0.25;;;;;;;;;;5034271;28;20099;-61
2024/01/30 11:45:23;;;;;;;0.52;0.52;;;;;;;;;;5034279;28;20403;-61
2024/01/30 11:47:51;;;;;;;1.90;1.65;;;;;;;;;;5034171;28;20049;-61
2024/01/30 11:50:19;;;;;;;0.00;0.00;;;;;;;;;;5034274;28;20438;-61
2024/01/30 11:52:47;;;;;;;2.22;1.60;;;;;;;;;;5033954;28;20038;-61
2024/01/30 11:55:15;;;;;;;0.00;0.00;;;;;;;;;;5034009;28;20537;-61
2024/01/30 11:57:46;;;;;;;1.55;1.45;;;;;;;;;;5033973;28;20182;-61
2024/01/30 12:00:18;;;;;;;1.92;1.45;;;;;;;;;;5033852;28;20128;-61
2024/01/30 12:02:50;;;;;;;0.70;0.70;;;;;;;;;;5033937;28;20041;-61
2024/01/30 12:05:17;;;;;;;0.17;0.17;;;;;;;;;;5032758;28;20053;-61
2024/01/30 12:07:46;;;;;;;4.90;4.60;;;;;;;;;;5033994;28;20514;-61
2024/01/30 12:10:14;;;;;;;0.45;0.45;;;;;;;;;;5033808;28;20498;-61
2024/01/30 12:12:50;;;;;;;1.40;1.40;;;;;;;;;;5033712;28;20072;-61
2024/01/30 12:15:21;;;;;;;0.80;0.73;;;;;;;;;;5032607;28;20037;-61
2024/01/30 12:17:49;;;;;;;1.20;1.02;;;;;;;;;;5033963;28;20128;-61
2024/01/30 12:20:21;;;;;;;2.40;0.15;;;;;;;;;;5033630;28;20128;-61
2024/01/30 12:22:50;;;;;;;0.28;0.28;;;;;;;;;;5033472;28;20058;-61
2024/01/30 12:25:18;;;;;;;3.65;1.25;;;;;;;;;;5033492;28;20052;-61
2024/01/30 12:27:51;;;;;;;3.03;1.50;;;;;;;;;;5032340;28;20450;-61
2024/01/30 12:30:20;;;;;;;0.43;0.20;;;;;;;;;;5033330;28;20564;-61
2024/01/30 12:32:50;;;;;;;0.52;0.52;;;;;;;;;;5033396;28;20459;-61
2024/01/30 12:35:20;;;;;;;9.43;2.70;;;;;;;;;;5032784;28;20443;-61
2024/01/30 12:37:49;;;;;;;3.42;1.88;;;;;;;;;;5033536;28;20146;-61
2024/01/30 12:40:17;;;;;;;0.00;0.00;;;;;;;;;;5030781;28;20503;-61
2024/01/30 12:42:50;;;;;;;1.08;0.93;;;;;;;;;;5033074;28;20073;-61
2024/01/30 12:45:22;;;;;;;0.20;0.20;;;;;;;;;;5033073;28;20395;-60
2024/01/30 12:47:51;;;;;;;1.35;1.25;;;;;;;;;;5033091;28;20034;-61
2024/01/30 12:50:19;;;;;;;0.50;0.50;;;;;;;;;;5031734;28;20083;-61
2024/01/30 12:52:47;;;;;;;0.65;0.65;;;;;;;;;;5033427;28;20091;-61
2024/01/30 12:55:17;;;;;;;0.10;0.10;;;;;;;;;;5032847;28;20041;-61
2024/01/30 12:57:45;;;;;;;0.35;0.20;;;;;;;;;;5031577;28;20450;-61
2024/01/30 13:00:13;;;;;;;1.15;0.80;;;;;;;;;;5032830;28;20041;-61
2024/01/30 13:02:42;;;;;;;0.43;0.43;;;;;;;;;;5032818;28;20045;-61
2024/01/30 13:05:10;;;;;;;2.25;1.60;;;;;;;;;;5032883;28;20099;-61
2024/01/30 13:07:38;;;;;;;0.00;0.00;;;;;;;;;;5032721;28;20073;-61
2024/01/30 13:10:06;;;;;;;0.08;0.08;;;;;;;;;;5032619;28;20128;-61
2024/01/30 13:12:34;;;;;;;0.00;0.00;;;;;;;;;;5032941;28;20056;-61
2024/01/30 13:15:03;;;;;;;2.95;1.23;;;;;;;;;;5032526;28;20116;-61
2024/01/30 13:17:31;;;;;;;0.00;0.00;;;;;;;;;;5032595;28;20045;-61
2024/01/30 13:19:58;;;;;;;0.85;0.40;;;;;;;;;;5032564;28;20038;-61
2024/01/30 13:22:38;;;;;;;1.85;1.75;;;;;;;;;;5032393;28;20053;-61
2024/01/30 13:25:07;;;;;;;2.55;2.05;;;;;;;;;;5030947;28;20387;-61
2024/01/30 13:27:35;;;;;;;0.88;0.75;;;;;;;;;;5032748;28;20522;-61
2024/01/30 13:30:03;;;;;;;2.13;1.75;;;;;;;;;;5032344;28;20049;-61
2024/01/30 13:32:31;;;;;;;0.05;0.05;;;;;;;;;;5032604;28;20533;-60
2024/01/30 13:34:59;;;;;;;1.63;1.52;;;;;;;;;;5032480;28;20099;-61
2024/01/30 13:37:27;;;;;;;0.80;0.80;;;;;;;;;;5032420;28;20041;-61
2024/01/30 13:39:54;;;;;;;0.32;0.32;;;;;;;;;;5032298;28;20056;-60
2024/01/30 13:42:23;;;;;;;0.52;0.52;;;;;;;;;;5031195;28;20053;-60
2024/01/30 13:44:50;;;;;;;0.70;0.70;;;;;;;;;;5032315;28;20045;-60
2024/01/30 13:47:21;;;;;;;0.75;0.75;;;;;;;;;;5031156;28;20114;-60
2024/01/30 13:49:49;;;;;;;1.20;1.10;;;;;;;;;;5032402;28;20056;-60
2024/01/30 13:52:17;;;;;;;0.93;0.90;;;;;;;;;;5032298;28;20040;-61
2024/01/30 13:54:47;;;;;;;0.15;0.15;;;;;;;;;;5032206;28;20045;-61
2024/01/30 13:57:15;;;;;;;2.65;2.35;;;;;;;;;;5032212;28;20050;-60
2024/01/30 13:59:42;;;;;;;1.45;1.35;;;;;;;;;;5032111;28;20037;-61
2024/01/30 14:02:10;;;;;;;0.30;0.30;;;;;;;;;;5032387;28;20398;-60
2024/01/30 14:04:38;;;;;;;1.10;1.10;;;;;;;;;;5032074;28;20421;-61
2024/01/30 14:07:06;;;;;;;0.35;0.35;;;;;;;;;;5032045;28;20394;-61
2024/01/30 14:09:34;;;;;;;0.40;0.40;;;;;;;;;;5032115;28;20084;-61
2024/01/30 14:12:03;;;;;;;3.30;0.52;;;;;;;;;;5032140;28;20048;-61
2024/01/30 14:14:30;;;;;;;1.20;0.30;;;;;;;;;;5030983;28;20411;-60
2024/01/30 14:16:58;;;;;;;0.95;0.95;;;;;;;;;;5032016;28;20033;-60
2024/01/30 14:19:26;;;;;;;0.00;0.00;;;;;;;;;;5031490;28;20042;-61
2024/01/30 14:21:53;;;;;;;0.50;0.28;;;;;;;;;;5031990;28;20045;-60
2024/01/30 14:24:21;;;;;;;25.17;2.17;;;;;;;;;;5030232;28;20046;-60
2024/01/30 14:26:49;;;;;;;1.10;0.70;;;;;;;;;;5031382;28;20565;-61
2024/01/30 14:29:16;;;;;;;1.25;1.13;;;;;;;;;;5031331;28;20045;-61
2024/01/30 14:31:44;;;;;;;1.38;0.85;;;;;;;;;;5032036;28;20045;-61
2024/01/30 14:34:12;;;;;;;0.65;0.63;;;;;;;;;;5031999;28;20033;-61
2024/01/30 14:36:40;;;;;;;1.05;1.05;;;;;;;;;;5031680;28;20495;-61
2024/01/30 14:39:08;;;;;;;0.55;0.55;;;;;;;;;;5035168;28;20044;-61
2024/01/30 14:41:35;;;;;;;0.20;0.20;;;;;;;;;;5035481;28;20065;-61
2024/01/30 14:44:05;;;;;;;0.32;0.32;;;;;;;;;;5034821;28;20594;-61
2024/01/30 14:46:34;;;;;;;0.93;0.55;;;;;;;;;;5035265;28;20041;-61
2024/01/30 14:49:05;;;;;;;2.20;0.57;;;;;;;;;;5034147;28;20045;-61